Terminal Aerodrome Forecast
Issued by NWS

Home | Current Version | Previous Version | Text Only | Print | Product List | Glossary On
Versions: 1 2 3 4 5 6 7 8 9 10 11 12 13 14 15 16 17 18 19 20 21
000
FTUS43 KDLH 061700
TAFBRD
TAF
KBRD 061739Z 0618/0718 32010KT P6SM SKC
     FM062100 29009KT P6SM FEW030
     FM070400 21007KT P6SM SCT025 BKN050
      TEMPO 0705/0708 4SM -SN BKN025
     FM070800 28008KT P6SM BKN025 BKN040
     FM071400 32012G20KT P6SM BKN040=

USA.gov is the U.S. government's official web portal to all federal, state and local government web resources and services.